ECP weather

Northwest Florida Beaches International Airport
Panama City Beach, Florida, United States

Public forecast

Using degrees Fahrenheit for public forecast. Weather courtesy of forecast.io.

METAR (pilot weather report)

Retrieved 2017/12/11 03:53 UTC (21 minutes ago):

KECP 110353Z 00000KT 10SM CLR 02/00 A3033 RMK AO2 SLP282 T00170000

TAF (pilot weather forecast)

Forecast is more than 12 hours old.

Retrieved 2017/12/10 00:21 UTC (1 day ago):

TAF KECP 102320Z 1100/1124 29003KT P6SM SKC